Acton, Canada
Current Conditions -  °F | °C
As of 9:00 AM on Thursday 27 Nov 2014 (Local Time) from CYKF Reporting Station
Overcast Overcast  
Wind Chill: 25°   Ceiling: 6500
Heat Index: 30°   Visibility: 9mi
Dew Point: 27°   Wind: 5mph
Humidity: 86%   Direction: 200°SSW
Pressure: 30.04"   Gusts: NA
Location:  43.63°N, 80.03°W
Report Text: CYKF 271400Z AUTO 20004KT 9SM OVC065 M01/M03 A3004 RMK SLP185
Loading
Personal Weather Stations






























Interactive Weather Map New forecast layout! Learn more

10-Day Weather Forecast

Advertisements
Track Severe Weather on mobile